createdAt,value
2023-05-14T00:01:37.506Z,27.00
2023-05-14T00:04:06.142Z,25.38
2023-05-14T00:06:32.776Z,26.15
2023-05-14T00:08:59.492Z,25.60
2023-05-14T00:11:26.263Z,24.58
2023-05-14T00:13:53.020Z,26.23
2023-05-14T00:16:20.833Z,27.17
2023-05-14T00:18:47.492Z,26.90
2023-05-14T00:21:14.502Z,27.50
2023-05-14T00:23:40.994Z,27.75
2023-05-14T00:26:07.857Z,27.70
2023-05-14T00:28:34.750Z,26.73
2023-05-14T00:31:01.414Z,28.63
2023-05-14T00:33:28.426Z,28.98
2023-05-14T00:35:54.980Z,27.88
2023-05-14T00:38:21.704Z,27.52
2023-05-14T00:40:51.847Z,28.08
2023-05-14T00:43:20.018Z,27.40
2023-05-14T00:45:50.555Z,26.50
2023-05-14T00:48:18.255Z,27.13
2023-05-14T00:50:45.236Z,26.83
2023-05-14T00:53:12.606Z,27.48
2023-05-14T00:55:40.862Z,26.25
2023-05-14T00:58:13.737Z,26.88
2023-05-14T01:00:42.164Z,26.15
2023-05-14T01:03:09.696Z,26.15
2023-05-14T01:06:24.218Z,28.13
2023-05-14T01:09:01.365Z,26.73
2023-05-14T01:12:06.519Z,27.70
2023-05-14T01:14:44.599Z,28.80
2023-05-14T01:17:15.394Z,29.20
2023-05-14T01:19:44.255Z,28.63
2023-05-14T01:22:12.932Z,27.88
2023-05-14T01:24:43.752Z,29.13
2023-05-14T01:27:30.320Z,29.00
2023-05-14T01:30:22.410Z,27.98
2023-05-14T01:32:53.671Z,29.42
2023-05-14T01:35:27.762Z,28.33
2023-05-14T01:37:58.460Z,28.02
2023-05-14T01:40:25.881Z,29.00
2023-05-14T01:42:54.392Z,30.02
2023-05-14T01:45:22.030Z,28.77
2023-05-14T01:47:51.520Z,28.25
2023-05-14T01:50:18.710Z,31.15
2023-05-14T01:52:46.867Z,30.10
2023-05-14T01:55:13.785Z,29.63
2023-05-14T01:57:40.669Z,30.00
2023-05-14T02:00:07.929Z,28.80
2023-05-14T02:02:34.650Z,29.50
2023-05-14T02:05:01.362Z,29.80
2023-05-14T02:07:28.353Z,31.30
2023-05-14T02:09:55.398Z,29.75
2023-05-14T02:12:22.643Z,30.58
2023-05-14T02:14:49.392Z,29.95
2023-05-14T02:17:17.724Z,29.45
2023-05-14T02:19:45.227Z,30.70
2023-05-14T02:22:12.070Z,30.10
2023-05-14T02:24:41.681Z,28.85
2023-05-14T02:27:08.889Z,28.10
2023-05-14T02:29:35.664Z,30.77
2023-05-14T02:32:02.424Z,31.67
2023-05-14T02:34:30.056Z,30.38
2023-05-14T02:36:56.714Z,30.27
2023-05-14T02:39:25.388Z,30.55
2023-05-14T02:41:51.981Z,31.92
2023-05-14T02:44:18.784Z,29.73
2023-05-14T02:46:45.708Z,29.60
2023-05-14T02:49:12.408Z,30.88
2023-05-14T02:51:39.189Z,30.67
2023-05-14T02:54:07.408Z,29.85
2023-05-14T02:56:33.975Z,31.23
2023-05-14T02:59:00.729Z,31.58
2023-05-14T03:01:30.622Z,31.48
2023-05-14T03:03:58.157Z,31.38
2023-05-14T03:06:27.538Z,32.03
2023-05-14T03:08:54.042Z,32.35
2023-05-14T03:11:21.081Z,32.45
2023-05-14T03:13:49.044Z,32.10
2023-05-14T03:16:16.204Z,32.67
2023-05-14T03:18:42.790Z,32.88
2023-05-14T03:21:11.432Z,33.42
2023-05-14T03:23:38.040Z,34.17
2023-05-14T03:26:05.008Z,33.22
2023-05-14T03:28:31.721Z,33.55
2023-05-14T03:30:58.846Z,33.85
2023-05-14T03:33:33.387Z,33.85
2023-05-14T03:35:59.926Z,34.47
2023-05-14T03:38:26.524Z,36.13
2023-05-14T03:40:53.289Z,35.05
2023-05-14T03:43:21.988Z,36.83
2023-05-14T03:45:52.770Z,35.53
2023-05-14T03:48:20.550Z,38.15
2023-05-14T03:50:47.508Z,36.22
2023-05-14T03:53:14.103Z,35.70
2023-05-14T03:55:41.137Z,36.80
2023-05-14T03:58:13.719Z,36.78
2023-05-14T04:00:42.169Z,37.97
2023-05-14T04:03:09.516Z,35.58
2023-05-14T04:05:43.429Z,36.80
2023-05-14T04:08:12.707Z,37.87
2023-05-14T04:10:40.434Z,37.83
2023-05-14T04:13:09.438Z,38.60
2023-05-14T04:15:38.235Z,36.50
2023-05-14T04:18:05.611Z,37.42
2023-05-14T04:20:32.730Z,36.97
2023-05-14T04:22:59.668Z,37.15
2023-05-14T04:25:28.383Z,37.90
2023-05-14T04:27:56.438Z,37.95
2023-05-14T04:30:23.202Z,37.80
2023-05-14T04:32:49.953Z,39.17
2023-05-14T04:35:16.662Z,39.60
2023-05-14T04:37:43.316Z,37.97
2023-05-14T04:40:14.441Z,38.90
2023-05-14T04:42:41.354Z,37.20
2023-05-14T04:45:08.947Z,38.33
2023-05-14T04:47:36.091Z,36.05
2023-05-14T04:50:02.937Z,34.65
2023-05-14T04:52:29.541Z,36.53
2023-05-14T04:54:57.017Z,36.53
2023-05-14T04:57:25.802Z,34.78
2023-05-14T04:59:53.467Z,35.70
2023-05-14T05:02:21.062Z,36.97
2023-05-14T05:04:51.309Z,35.58
2023-05-14T05:07:19.396Z,36.08
2023-05-14T05:09:46.295Z,34.70
2023-05-14T05:12:14.979Z,34.97
2023-05-14T05:14:43.182Z,32.90
2023-05-14T05:17:10.168Z,34.15
2023-05-14T05:19:43.701Z,34.08
2023-05-14T05:22:11.228Z,35.13
2023-05-14T05:24:37.949Z,33.38
2023-05-14T05:27:08.034Z,34.13
2023-05-14T05:29:35.450Z,35.28
2023-05-14T05:32:02.029Z,35.85
2023-05-14T05:34:28.555Z,34.47
2023-05-14T05:36:55.158Z,36.47
2023-05-14T05:39:23.320Z,36.90
2023-05-14T05:41:50.283Z,36.70
2023-05-14T05:44:17.367Z,34.58
2023-05-14T05:46:44.329Z,35.30
2023-05-14T05:49:11.614Z,32.15
2023-05-14T05:51:38.278Z,30.98
2023-05-14T05:54:07.016Z,31.85
2023-05-14T05:56:33.841Z,32.97
2023-05-14T05:59:00.976Z,32.50
2023-05-14T06:01:29.857Z,29.65
2023-05-14T06:03:57.398Z,32.40
2023-05-14T06:06:24.036Z,31.77
2023-05-14T06:08:50.804Z,32.88
2023-05-14T06:11:17.374Z,33.45
2023-05-14T06:13:49.945Z,29.67
2023-05-14T06:16:18.093Z,30.92
2023-05-14T06:18:46.649Z,29.27
2023-05-14T06:21:13.709Z,29.02
2023-05-14T06:23:41.593Z,29.02
2023-05-14T06:26:08.174Z,26.42
2023-05-14T06:28:35.949Z,26.60
2023-05-14T06:31:02.614Z,29.40
2023-05-14T06:33:33.179Z,28.00
2023-05-14T06:36:05.787Z,26.88
2023-05-14T06:38:32.538Z,25.02
2023-05-14T06:40:59.200Z,24.25
2023-05-14T06:43:25.931Z,24.60
2023-05-14T06:45:52.571Z,24.10
2023-05-14T06:48:20.091Z,23.35
2023-05-14T06:50:48.192Z,23.80
2023-05-14T06:53:19.784Z,22.15
2023-05-14T06:55:51.172Z,24.45
2023-05-14T06:58:17.839Z,24.50
2023-05-14T07:00:44.468Z,24.55
2023-05-14T07:03:11.211Z,24.17
2023-05-14T07:05:38.097Z,23.75
2023-05-14T07:08:04.870Z,23.98
2023-05-14T07:10:32.162Z,23.00
2023-05-14T07:12:58.902Z,24.98
2023-05-14T07:15:25.458Z,26.17
2023-05-14T07:20:36.646Z,25.90
2023-05-14T07:23:23.971Z,24.83
2023-05-14T07:25:58.024Z,25.83
2023-05-14T07:28:26.465Z,24.45
2023-05-14T07:30:54.425Z,25.25
2023-05-14T07:36:03.643Z,26.02
2023-05-14T07:38:33.019Z,25.77
2023-05-14T07:41:01.206Z,24.55
2023-05-14T07:43:28.019Z,25.70
2023-05-14T07:45:56.084Z,25.98
2023-05-14T07:48:23.259Z,24.02
2023-05-14T07:50:51.949Z,23.15
2023-05-14T07:53:18.911Z,24.65
2023-05-14T07:55:48.481Z,22.58
2023-05-14T07:58:16.523Z,24.08
2023-05-14T08:00:44.844Z,23.63
2023-05-14T08:03:11.717Z,22.38
2023-05-14T08:05:38.798Z,21.52
2023-05-14T08:08:05.624Z,21.15
2023-05-14T08:10:32.275Z,19.75
2023-05-14T08:12:59.040Z,20.13
2023-05-14T08:15:27.753Z,21.02
2023-05-14T08:17:56.131Z,20.85
2023-05-14T08:20:23.732Z,22.52
2023-05-14T08:22:51.300Z,21.58
2023-05-14T08:25:17.958Z,22.13
2023-05-14T08:27:44.693Z,21.73
2023-05-14T08:30:12.521Z,21.77
2023-05-14T08:32:39.829Z,20.17
2023-05-14T08:35:07.054Z,20.38
2023-05-14T08:37:33.716Z,21.92
2023-05-14T08:40:02.184Z,21.70
2023-05-14T08:42:31.398Z,21.80
2023-05-14T08:45:03.714Z,20.13
2023-05-14T08:47:31.735Z,21.50
2023-05-14T08:50:06.667Z,21.83
2023-05-14T08:52:36.481Z,19.27
2023-05-14T08:55:07.432Z,17.42
2023-05-14T08:57:37.249Z,19.27
2023-05-14T09:00:15.622Z,18.25
2023-05-14T09:02:44.937Z,17.45
2023-05-14T09:05:13.723Z,18.50
2023-05-14T09:07:40.415Z,17.58
2023-05-14T09:10:09.513Z,16.77
2023-05-14T09:12:38.009Z,15.98
2023-05-14T09:15:07.055Z,17.60
2023-05-14T09:17:36.012Z,15.48
2023-05-14T09:20:04.093Z,13.80
2023-05-14T19:11:12.362Z,5.90
2023-05-14T19:13:42.193Z,6.25
2023-05-14T19:16:09.010Z,6.00
2023-05-14T19:18:46.705Z,6.75
2023-05-14T19:21:19.691Z,6.65
2023-05-14T19:26:38.594Z,7.63
2023-05-14T19:29:05.534Z,6.22
2023-05-14T19:31:32.318Z,7.60
2023-05-14T19:33:59.009Z,7.10
2023-05-14T19:36:27.510Z,6.28
2023-05-14T19:38:54.091Z,8.57
2023-05-14T19:41:22.074Z,8.60
2023-05-14T19:43:51.394Z,7.28
2023-05-14T19:46:18.036Z,7.97
2023-05-14T19:48:45.306Z,8.10
2023-05-14T19:51:13.577Z,8.20
2023-05-14T19:53:45.932Z,8.60
2023-05-14T19:56:14.579Z,10.13
2023-05-14T19:58:43.149Z,9.98
2023-05-14T20:01:10.223Z,9.38
2023-05-14T20:03:37.764Z,9.90
2023-05-14T20:06:07.125Z,9.52
2023-05-14T20:08:34.146Z,11.13
2023-05-14T20:11:00.799Z,9.77
2023-05-14T20:13:31.801Z,10.10
2023-05-14T20:16:01.121Z,12.38
2023-05-14T20:18:27.964Z,10.82
2023-05-14T20:20:55.071Z,9.75
2023-05-14T20:23:22.233Z,9.60
2023-05-14T20:25:51.659Z,10.40
2023-05-14T20:28:18.881Z,11.48
2023-05-14T20:30:48.409Z,11.43
2023-05-14T20:33:15.284Z,11.40
2023-05-14T20:35:48.296Z,11.45
2023-05-14T20:38:16.780Z,10.75
2023-05-14T20:40:49.380Z,10.88
2023-05-14T20:43:25.290Z,11.48
2023-05-14T20:46:06.562Z,12.95
2023-05-14T20:48:34.559Z,11.75
2023-05-14T20:51:06.277Z,12.65
2023-05-14T20:53:34.507Z,11.23
2023-05-14T20:56:01.633Z,12.07
2023-05-14T20:58:32.757Z,11.57
2023-05-14T21:01:00.514Z,11.80
2023-05-14T21:03:31.468Z,13.27
2023-05-14T21:06:03.366Z,12.98
2023-05-14T21:08:33.323Z,12.73
2023-05-14T21:11:11.399Z,12.88
2023-05-14T21:13:50.259Z,12.68
2023-05-14T21:16:30.869Z,14.75
2023-05-14T21:19:01.242Z,13.98
2023-05-14T21:21:32.861Z,12.55
2023-05-14T21:24:02.244Z,14.15
2023-05-14T21:26:32.482Z,13.95
2023-05-14T21:29:00.048Z,15.35
2023-05-14T21:31:28.941Z,15.07
2023-05-14T21:33:57.637Z,14.25
2023-05-14T21:36:24.517Z,16.33
2023-05-14T21:38:56.443Z,14.88
